Time;durP1;ratioP1;P1;durP2;ratioP2;P2;SDS_P1;SDS_P2;PMS_P1;PMS_P2;Temp;Humidity;BMP_temperature;BMP_pressure;BME280_temperature;BME280_humidity;BME280_pressure;Samples;Min_cycle;Max_cycle;Signal;HPM_P1;HPM_P2
2022/04/02 07:20:18;;;;;;;39.05;21.35;;;;;;;1.97;91.55;98760.50;5557624;32;275957;-84
2022/04/02 07:23:22;;;;;;;36.78;21.23;;;;;;;1.86;90.80;98765.34;5549622;32;33478;-85
2022/04/02 07:26:26;;;;;;;35.78;20.65;;;;;;;2.10;90.37;98771.34;5544196;32;33897;-85
2022/04/02 07:29:32;;;;;;;33.05;19.50;;;;;;;2.39;90.00;98764.06;5543947;32;33632;-85
2022/04/02 07:32:35;;;;;;;36.00;20.85;;;;;;;2.31;87.95;98770.53;5543701;32;33500;-85
2022/04/02 07:35:47;;;;;;;34.35;21.25;;;;;;;2.30;88.98;98767.03;5543410;32;33504;-85
2022/04/02 07:38:59;;;;;;;33.30;20.92;;;;;;;2.55;88.07;98763.41;5543037;32;33779;-85
2022/04/02 07:42:13;;;;;;;32.50;20.85;;;;;;;2.73;87.37;98771.38;5543343;32;33407;-85
2022/04/02 07:45:22;;;;;;;36.38;21.20;;;;;;;2.71;86.94;98773.22;5543368;32;34140;-86
2022/04/02 07:48:25;;;;;;;32.55;21.23;;;;;;;2.49;87.15;98775.00;5543269;32;33868;-84
2022/04/02 07:51:29;;;;;;;35.38;21.33;;;;;;;2.58;87.83;98778.97;5548025;32;33696;-86
2022/04/02 07:54:39;;;;;;;35.03;21.55;;;;;;;2.60;87.73;98778.91;5547410;32;34114;-86
2022/04/02 07:57:47;;;;;;;31.52;19.85;;;;;;;2.59;87.04;98779.81;5547411;32;33643;-84
2022/04/02 08:00:54;;;;;;;;;;;;;;;2.65;87.55;98788.28;5559439;32;34110;-83
2022/04/02 08:04:03;;;;;;;37.55;20.75;;;;;;;2.64;87.66;98794.44;5558690;32;35459;-84
2022/04/02 08:07:07;;;;;;;32.65;21.23;;;;;;;2.79;87.23;98790.31;5550364;32;34763;-85
2022/04/02 08:10:12;;;;;;;32.05;20.67;;;;;;;3.00;85.98;98794.66;5543431;32;34035;-85
2022/04/02 08:13:15;;;;;;;34.72;20.92;;;;;;;2.58;86.71;98794.69;5543288;32;34925;-85
2022/04/02 08:16:21;;;;;;;33.42;20.58;;;;;;;2.58;86.73;98799.94;5543237;32;34439;-85
2022/04/02 08:19:24;;;;;;;29.98;19.98;;;;;;;2.64;86.80;98796.19;5542860;32;33709;-85
2022/04/02 08:22:27;;;;;;;32.67;21.05;;;;;;;2.77;86.74;98793.91;5543067;32;34356;-85
2022/04/02 08:25:31;;;;;;;30.35;20.05;;;;;;;3.00;86.34;98794.66;5543963;32;33911;-85
2022/04/02 08:28:53;;;;;;;31.27;20.17;;;;;;;2.86;85.78;98803.97;5545390;32;33895;-85
2022/04/02 08:31:58;;;;;;;34.88;20.85;;;;;;;2.79;85.91;98792.94;5536535;32;33715;-85
2022/04/02 08:35:11;;;;;;;31.55;20.55;;;;;;;2.67;87.26;98801.31;5530606;32;34189;-85
2022/04/02 08:38:47;;;;;;;33.33;20.58;;;;;;;2.92;87.01;98800.25;5530252;32;33999;-85
2022/04/02 08:42:28;;;;;;;28.62;19.30;;;;;;;3.09;86.43;98802.13;5532605;32;34602;-84
2022/04/02 08:45:32;;;;;;;32.50;20.17;;;;;;;3.31;86.23;98817.75;5532522;32;36572;-85
2022/04/02 08:48:36;;;;;;;27.58;18.90;;;;;;;3.20;85.63;98817.38;5543016;32;33854;-85
2022/04/02 08:51:45;;;;;;;28.17;18.20;;;;;;;3.15;84.67;98824.56;5543833;32;35255;-85
2022/04/02 08:55:29;;;;;;;31.55;19.58;;;;;;;3.23;83.68;98825.94;5536906;32;34613;-85
2022/04/02 08:58:51;;;;;;;31.12;19.48;;;;;;;3.17;84.50;98830.62;5529904;32;33983;-85
2022/04/02 09:02:29;;;;;;;28.83;18.90;;;;;;;3.12;84.80;98825.56;5530204;32;35246;-85
2022/04/02 09:05:51;;;;;;;31.40;18.98;;;;;;;3.39;85.35;98843.63;5505957;32;33156;-85
2022/04/02 09:09:12;;;;;;;;;;;;;;;3.41;83.41;98844.38;5530034;32;34523;-89
2022/04/02 09:12:24;;;;;;;27.15;18.40;;;;;;;3.69;82.88;98842.28;5530698;32;33994;-85
2022/04/02 09:15:29;;;;;;;29.35;18.20;;;;;;;3.70;83.02;98841.38;5530586;32;34012;-85
2022/04/02 09:18:39;;;;;;;30.40;19.50;;;;;;;3.46;83.34;98846.78;5529898;32;33777;-85
2022/04/02 09:21:59;;;;;;;29.25;19.33;;;;;;;3.45;82.74;98843.34;5529990;32;33861;-84
2022/04/02 09:25:20;;;;;;;27.98;18.40;;;;;;;3.33;83.65;98849.13;5530637;32;35087;-85
2022/04/02 09:28:42;;;;;;;;;;;;;;;3.54;83.96;98856.94;5530881;32;33632;-85
2022/04/02 09:31:48;;;;;;;26.27;18.33;;;;;;;3.71;82.78;98861.41;5531059;32;35548;-85
2022/04/02 09:34:59;;;;;;;29.50;18.42;;;;;;;4.02;81.02;98852.97;5535980;32;33795;-85
2022/04/02 09:38:27;;;;;;;29.77;18.55;;;;;;;4.38;80.61;98863.59;5530496;32;33632;-85
2022/04/02 09:41:57;;;;;;;26.90;18.33;;;;;;;4.55;80.11;98866.25;5528957;32;34424;-86
2022/04/02 09:45:10;;;;;;;25.73;17.30;;;;;;;4.89;78.59;98862.84;5529980;32;34524;-86
2022/04/02 09:48:21;;;;;;;27.08;17.52;;;;;;;4.60;79.16;98871.25;5530281;32;33993;-86
2022/04/02 09:51:31;;;;;;;27.65;17.92;;;;;;;4.67;79.26;98877.91;5530960;32;34060;-86
2022/04/02 09:54:54;;;;;;;28.05;18.48;;;;;;;4.82;78.73;98883.31;5531080;32;34606;-86
2022/04/02 09:58:16;;;;;;;27.25;17.17;;;;;;;4.58;79.20;98878.38;5531169;32;34567;-86
2022/04/02 10:01:30;;;;;;;28.40;17.23;;;;;;;4.94;79.20;98877.44;5532074;32;34238;-86
2022/04/02 10:05:07;;;;;;;25.33;17.45;;;;;;;5.16;77.59;98884.25;5529575;32;34496;-86
2022/04/02 10:08:39;;;;;;;26.75;18.23;;;;;;;5.11;78.20;98879.22;5520127;32;33722;-86
2022/04/02 10:11:49;;;;;;;32.55;17.90;;;;;;;5.14;78.04;98880.84;5529820;32;34837;-91
2022/04/02 10:15:00;;;;;;;25.73;18.00;;;;;;;5.29;76.37;98881.84;5529608;32;34043;-87
2022/04/02 10:18:03;;;;;;;25.17;17.15;;;;;;;5.10;77.56;98881.94;5529645;32;34438;-86
2022/04/02 10:21:06;;;;;;;26.62;17.73;;;;;;;5.18;78.38;98876.28;5530200;32;33617;-86
2022/04/02 10:24:21;;;;;;;26.73;18.15;;;;;;;5.18;77.59;98887.63;5538418;32;34266;-86
2022/04/02 10:27:36;;;;;;;24.92;18.08;;;;;;;5.03;78.17;98899.78;5542456;32;34051;-86
2022/04/02 10:30:42;;;;;;;26.45;17.65;;;;;;;5.06;78.40;98897.00;5529729;32;34800;-86
2022/04/02 10:33:49;;;;;;;25.23;17.92;;;;;;;4.99;79.83;98899.09;5529309;32;34170;-86
2022/04/02 10:37:00;;;;;;;24.83;17.92;;;;;;;5.16;79.64;98893.91;5530377;32;34341;-85
2022/04/02 10:40:05;;;;;;;24.90;18.10;;;;;;;4.97;80.69;98898.31;5533624;32;33991;-85
